Terminal Aerodrome Forecast
Issued by NWS Riverton, WY

Home | Current Version | Previous Version | Text Only | Print | Product List | Glossary On
Versions: 1 2 3 4 5 6 7 8 9 10 11 12 13 14 15
000
FTUS45 KRIW 312300
TAFRIW
TAF
KRIW 312327Z 0100/0124 VRB05KT P6SM SCT110 BKN250
     FM010230 30007KT P6SM FEW150 SCT200
     FM012100 04009G15KT P6SM SCT090=

USA.gov is the U.S. government's official web portal to all federal, state and local government web resources and services.